sensor_id;sensor_type;location;lat;lon;timestamp;P1;durP1;ratioP1;P2;durP2;ratioP2
2011;SDS011;1009;51.436;6.972;2024-03-02T00:00:13;1.77;;;0.80;;
2011;SDS011;1009;51.436;6.972;2024-03-02T00:02:40;1.13;;;1.03;;
2011;SDS011;1009;51.436;6.972;2024-03-02T00:05:09;1.60;;;1.20;;
2011;SDS011;1009;51.436;6.972;2024-03-02T00:07:37;1.30;;;1.10;;
2011;SDS011;1009;51.436;6.972;2024-03-02T00:10:07;2.43;;;1.07;;
2011;SDS011;1009;51.436;6.972;2024-03-02T00:12:35;1.43;;;0.90;;
2011;SDS011;1009;51.436;6.972;2024-03-02T00:15:04;1.57;;;1.20;;
2011;SDS011;1009;51.436;6.972;2024-03-02T00:17:32;3.77;;;1.17;;
2011;SDS011;1009;51.436;6.972;2024-03-02T00:19:59;2.23;;;1.00;;
2011;SDS011;1009;51.436;6.972;2024-03-02T00:22:30;2.30;;;1.33;;
2011;SDS011;1009;51.436;6.972;2024-03-02T00:24:56;2.00;;;1.10;;
2011;SDS011;1009;51.436;6.972;2024-03-02T00:27:24;1.07;;;0.90;;
2011;SDS011;1009;51.436;6.972;2024-03-02T00:29:51;1.27;;;1.00;;
2011;SDS011;1009;51.436;6.972;2024-03-02T00:32:18;2.40;;;1.17;;
2011;SDS011;1009;51.436;6.972;2024-03-02T00:34:44;1.50;;;1.03;;
2011;SDS011;1009;51.436;6.972;2024-03-02T00:37:11;2.07;;;1.20;;
2011;SDS011;1009;51.436;6.972;2024-03-02T00:39:39;1.50;;;1.40;;
2011;SDS011;1009;51.436;6.972;2024-03-02T00:42:06;1.80;;;1.40;;
2011;SDS011;1009;51.436;6.972;2024-03-02T00:44:33;2.13;;;0.87;;
2011;SDS011;1009;51.436;6.972;2024-03-02T00:47:00;1.70;;;0.97;;
2011;SDS011;1009;51.436;6.972;2024-03-02T00:49:28;2.07;;;1.20;;
2011;SDS011;1009;51.436;6.972;2024-03-02T00:51:58;1.37;;;0.67;;
2011;SDS011;1009;51.436;6.972;2024-03-02T00:54:25;1.50;;;1.40;;
2011;SDS011;1009;51.436;6.972;2024-03-02T00:56:55;1.07;;;0.80;;
2011;SDS011;1009;51.436;6.972;2024-03-02T00:59:22;1.17;;;0.97;;
2011;SDS011;1009;51.436;6.972;2024-03-02T01:01:49;4.77;;;1.27;;
2011;SDS011;1009;51.436;6.972;2024-03-02T01:04:15;2.50;;;0.90;;
2011;SDS011;1009;51.436;6.972;2024-03-02T01:06:42;2.10;;;1.10;;
2011;SDS011;1009;51.436;6.972;2024-03-02T01:09:09;1.53;;;1.00;;
2011;SDS011;1009;51.436;6.972;2024-03-02T01:11:37;2.23;;;0.80;;
2011;SDS011;1009;51.436;6.972;2024-03-02T01:14:05;1.30;;;0.80;;
2011;SDS011;1009;51.436;6.972;2024-03-02T01:16:32;2.70;;;1.07;;
2011;SDS011;1009;51.436;6.972;2024-03-02T01:18:59;1.77;;;1.53;;
2011;SDS011;1009;51.436;6.972;2024-03-02T01:21:25;3.27;;;1.00;;
2011;SDS011;1009;51.436;6.972;2024-03-02T01:23:52;3.30;;;1.27;;
2011;SDS011;1009;51.436;6.972;2024-03-02T01:26:19;1.50;;;1.00;;
2011;SDS011;1009;51.436;6.972;2024-03-02T01:28:46;1.00;;;0.90;;
2011;SDS011;1009;51.436;6.972;2024-03-02T01:31:14;3.17;;;1.00;;
2011;SDS011;1009;51.436;6.972;2024-03-02T01:33:41;2.50;;;1.40;;
2011;SDS011;1009;51.436;6.972;2024-03-02T01:36:07;1.63;;;1.10;;
2011;SDS011;1009;51.436;6.972;2024-03-02T01:38:34;1.60;;;0.90;;
2011;SDS011;1009;51.436;6.972;2024-03-02T01:41:01;1.43;;;0.80;;
2011;SDS011;1009;51.436;6.972;2024-03-02T01:43:28;2.30;;;1.13;;
2011;SDS011;1009;51.436;6.972;2024-03-02T01:45:55;5.47;;;1.13;;
2011;SDS011;1009;51.436;6.972;2024-03-02T01:48:23;1.80;;;1.17;;
2011;SDS011;1009;51.436;6.972;2024-03-02T01:50:50;1.63;;;1.13;;
2011;SDS011;1009;51.436;6.972;2024-03-02T01:53:17;0.93;;;0.77;;
2011;SDS011;1009;51.436;6.972;2024-03-02T01:55:44;1.80;;;1.47;;
2011;SDS011;1009;51.436;6.972;2024-03-02T01:58:10;1.73;;;1.27;;
2011;SDS011;1009;51.436;6.972;2024-03-02T02:00:37;1.67;;;0.90;;
2011;SDS011;1009;51.436;6.972;2024-03-02T02:03:04;1.10;;;1.00;;
2011;SDS011;1009;51.436;6.972;2024-03-02T02:05:33;1.07;;;0.60;;
2011;SDS011;1009;51.436;6.972;2024-03-02T02:08:00;0.90;;;0.67;;
2011;SDS011;1009;51.436;6.972;2024-03-02T02:10:27;2.80;;;1.03;;
2011;SDS011;1009;51.436;6.972;2024-03-02T02:12:54;1.23;;;0.90;;
2011;SDS011;1009;51.436;6.972;2024-03-02T02:15:27;1.90;;;0.70;;
2011;SDS011;1009;51.436;6.972;2024-03-02T02:17:54;2.13;;;1.20;;
2011;SDS011;1009;51.436;6.972;2024-03-02T02:20:21;1.70;;;1.03;;
2011;SDS011;1009;51.436;6.972;2024-03-02T02:22:56;1.53;;;0.90;;
2011;SDS011;1009;51.436;6.972;2024-03-02T02:25:24;2.00;;;0.90;;
2011;SDS011;1009;51.436;6.972;2024-03-02T02:27:51;2.20;;;0.70;;
2011;SDS011;1009;51.436;6.972;2024-03-02T02:30:19;1.37;;;0.90;;
2011;SDS011;1009;51.436;6.972;2024-03-02T02:32:47;2.30;;;0.83;;
2011;SDS011;1009;51.436;6.972;2024-03-02T02:35:13;1.53;;;1.13;;
2011;SDS011;1009;51.436;6.972;2024-03-02T02:37:40;1.30;;;1.00;;
2011;SDS011;1009;51.436;6.972;2024-03-02T02:40:09;1.43;;;1.33;;
2011;SDS011;1009;51.436;6.972;2024-03-02T02:42:37;1.00;;;0.83;;
2011;SDS011;1009;51.436;6.972;2024-03-02T02:45:04;2.13;;;0.90;;
2011;SDS011;1009;51.436;6.972;2024-03-02T02:47:31;1.80;;;1.00;;
2011;SDS011;1009;51.436;6.972;2024-03-02T02:50:00;1.93;;;1.33;;
2011;SDS011;1009;51.436;6.972;2024-03-02T02:52:30;1.30;;;1.00;;
2011;SDS011;1009;51.436;6.972;2024-03-02T02:54:59;2.17;;;1.00;;
2011;SDS011;1009;51.436;6.972;2024-03-02T02:57:27;3.17;;;1.03;;
2011;SDS011;1009;51.436;6.972;2024-03-02T02:59:55;0.80;;;0.67;;
2011;SDS011;1009;51.436;6.972;2024-03-02T03:02:22;2.40;;;1.00;;
2011;SDS011;1009;51.436;6.972;2024-03-02T03:04:49;0.93;;;0.67;;
2011;SDS011;1009;51.436;6.972;2024-03-02T03:07:15;1.10;;;0.73;;
2011;SDS011;1009;51.436;6.972;2024-03-02T03:09:42;1.53;;;0.90;;
2011;SDS011;1009;51.436;6.972;2024-03-02T03:12:09;3.00;;;0.90;;
2011;SDS011;1009;51.436;6.972;2024-03-02T03:14:37;1.37;;;1.03;;
2011;SDS011;1009;51.436;6.972;2024-03-02T03:17:03;1.97;;;0.90;;
2011;SDS011;1009;51.436;6.972;2024-03-02T03:19:32;2.23;;;1.63;;
2011;SDS011;1009;51.436;6.972;2024-03-02T03:21:58;2.00;;;1.10;;
2011;SDS011;1009;51.436;6.972;2024-03-02T03:24:25;1.00;;;0.90;;
2011;SDS011;1009;51.436;6.972;2024-03-02T03:26:52;1.00;;;0.80;;
2011;SDS011;1009;51.436;6.972;2024-03-02T03:29:18;1.53;;;1.00;;
2011;SDS011;1009;51.436;6.972;2024-03-02T03:31:46;1.93;;;0.87;;
2011;SDS011;1009;51.436;6.972;2024-03-02T03:34:13;1.33;;;1.13;;
2011;SDS011;1009;51.436;6.972;2024-03-02T03:36:41;2.20;;;1.00;;
2011;SDS011;1009;51.436;6.972;2024-03-02T03:39:08;1.37;;;0.83;;
2011;SDS011;1009;51.436;6.972;2024-03-02T03:41:35;3.47;;;1.23;;
2011;SDS011;1009;51.436;6.972;2024-03-02T03:44:02;3.93;;;1.00;;
2011;SDS011;1009;51.436;6.972;2024-03-02T03:46:29;1.63;;;1.30;;
2011;SDS011;1009;51.436;6.972;2024-03-02T03:48:58;1.70;;;0.90;;
2011;SDS011;1009;51.436;6.972;2024-03-02T03:51:25;2.87;;;1.13;;
2011;SDS011;1009;51.436;6.972;2024-03-02T03:53:52;1.47;;;0.90;;
2011;SDS011;1009;51.436;6.972;2024-03-02T03:56:18;1.47;;;1.10;;
2011;SDS011;1009;51.436;6.972;2024-03-02T03:58:45;6.67;;;1.40;;
2011;SDS011;1009;51.436;6.972;2024-03-02T04:01:12;4.83;;;1.17;;
2011;SDS011;1009;51.436;6.972;2024-03-02T04:03:39;2.80;;;1.40;;
2011;SDS011;1009;51.436;6.972;2024-03-02T04:06:07;2.80;;;1.30;;
2011;SDS011;1009;51.436;6.972;2024-03-02T04:08:33;1.93;;;1.70;;
2011;SDS011;1009;51.436;6.972;2024-03-02T04:11:00;2.23;;;1.23;;
2011;SDS011;1009;51.436;6.972;2024-03-02T04:13:27;2.20;;;1.20;;
2011;SDS011;1009;51.436;6.972;2024-03-02T04:15:54;2.17;;;0.90;;
2011;SDS011;1009;51.436;6.972;2024-03-02T04:18:21;1.90;;;1.07;;
2011;SDS011;1009;51.436;6.972;2024-03-02T04:20:47;1.40;;;0.90;;
2011;SDS011;1009;51.436;6.972;2024-03-02T04:23:15;4.03;;;1.17;;
2011;SDS011;1009;51.436;6.972;2024-03-02T04:25:42;2.60;;;2.13;;
2011;SDS011;1009;51.436;6.972;2024-03-02T04:28:09;1.67;;;1.23;;
2011;SDS011;1009;51.436;6.972;2024-03-02T04:30:37;1.97;;;1.20;;
2011;SDS011;1009;51.436;6.972;2024-03-02T04:33:04;1.43;;;1.20;;
2011;SDS011;1009;51.436;6.972;2024-03-02T04:35:32;2.00;;;1.10;;
2011;SDS011;1009;51.436;6.972;2024-03-02T04:37:59;1.30;;;0.80;;
2011;SDS011;1009;51.436;6.972;2024-03-02T04:40:27;1.60;;;1.27;;
2011;SDS011;1009;51.436;6.972;2024-03-02T04:42:53;1.80;;;0.90;;
2011;SDS011;1009;51.436;6.972;2024-03-02T04:45:20;1.70;;;1.60;;
2011;SDS011;1009;51.436;6.972;2024-03-02T04:47:47;3.93;;;1.30;;
2011;SDS011;1009;51.436;6.972;2024-03-02T04:50:15;2.20;;;1.20;;
2011;SDS011;1009;51.436;6.972;2024-03-02T04:52:41;2.67;;;1.50;;
2011;SDS011;1009;51.436;6.972;2024-03-02T04:55:08;2.13;;;1.47;;
2011;SDS011;1009;51.436;6.972;2024-03-02T04:58:01;1.60;;;1.00;;
2011;SDS011;1009;51.436;6.972;2024-03-02T05:00:28;1.77;;;1.20;;
2011;SDS011;1009;51.436;6.972;2024-03-02T05:02:55;1.50;;;1.10;;
2011;SDS011;1009;51.436;6.972;2024-03-02T05:05:22;1.40;;;1.07;;
2011;SDS011;1009;51.436;6.972;2024-03-02T05:07:48;1.37;;;1.13;;
2011;SDS011;1009;51.436;6.972;2024-03-02T05:10:15;1.80;;;1.10;;
2011;SDS011;1009;51.436;6.972;2024-03-02T05:12:42;2.30;;;1.10;;
2011;SDS011;1009;51.436;6.972;2024-03-02T05:15:25;2.03;;;1.37;;
2011;SDS011;1009;51.436;6.972;2024-03-02T05:17:51;2.10;;;1.10;;
2011;SDS011;1009;51.436;6.972;2024-03-02T05:20:18;1.70;;;1.20;;
2011;SDS011;1009;51.436;6.972;2024-03-02T05:22:45;3.27;;;1.97;;
2011;SDS011;1009;51.436;6.972;2024-03-02T05:25:12;3.80;;;1.17;;
2011;SDS011;1009;51.436;6.972;2024-03-02T05:27:39;2.80;;;1.40;;
2011;SDS011;1009;51.436;6.972;2024-03-02T05:30:06;1.67;;;1.37;;
2011;SDS011;1009;51.436;6.972;2024-03-02T05:32:35;1.83;;;1.30;;
2011;SDS011;1009;51.436;6.972;2024-03-02T05:35:02;3.57;;;1.17;;
2011;SDS011;1009;51.436;6.972;2024-03-02T05:37:30;1.37;;;0.80;;
2011;SDS011;1009;51.436;6.972;2024-03-02T05:39:56;2.17;;;1.03;;
2011;SDS011;1009;51.436;6.972;2024-03-02T05:42:24;4.10;;;1.47;;
2011;SDS011;1009;51.436;6.972;2024-03-02T05:44:52;2.43;;;1.33;;
2011;SDS011;1009;51.436;6.972;2024-03-02T05:47:19;2.90;;;1.57;;
2011;SDS011;1009;51.436;6.972;2024-03-02T05:49:47;2.80;;;1.30;;
2011;SDS011;1009;51.436;6.972;2024-03-02T05:52:13;1.87;;;1.30;;
2011;SDS011;1009;51.436;6.972;2024-03-02T05:54:40;1.47;;;1.20;;
2011;SDS011;1009;51.436;6.972;2024-03-02T05:57:07;1.20;;;1.10;;
2011;SDS011;1009;51.436;6.972;2024-03-02T05:59:56;1.60;;;1.27;;
2011;SDS011;1009;51.436;6.972;2024-03-02T06:02:23;4.70;;;1.33;;
2011;SDS011;1009;51.436;6.972;2024-03-02T06:04:52;1.40;;;1.27;;
2011;SDS011;1009;51.436;6.972;2024-03-02T06:07:20;1.70;;;1.20;;
2011;SDS011;1009;51.436;6.972;2024-03-02T06:09:46;2.43;;;1.40;;
2011;SDS011;1009;51.436;6.972;2024-03-02T06:12:15;1.40;;;1.20;;
2011;SDS011;1009;51.436;6.972;2024-03-02T06:14:43;1.50;;;1.30;;
2011;SDS011;1009;51.436;6.972;2024-03-02T06:17:09;1.57;;;1.10;;
2011;SDS011;1009;51.436;6.972;2024-03-02T06:19:36;2.67;;;1.40;;
2011;SDS011;1009;51.436;6.972;2024-03-02T06:22:04;4.70;;;1.80;;
2011;SDS011;1009;51.436;6.972;2024-03-02T06:24:31;2.50;;;1.60;;
2011;SDS011;1009;51.436;6.972;2024-03-02T06:26:57;3.43;;;1.90;;
2011;SDS011;1009;51.436;6.972;2024-03-02T06:29:24;1.80;;;1.30;;
2011;SDS011;1009;51.436;6.972;2024-03-02T06:31:51;3.13;;;1.47;;
2011;SDS011;1009;51.436;6.972;2024-03-02T06:34:17;1.60;;;1.50;;
2011;SDS011;1009;51.436;6.972;2024-03-02T06:36:44;2.00;;;1.57;;
2011;SDS011;1009;51.436;6.972;2024-03-02T06:39:12;2.30;;;1.60;;
2011;SDS011;1009;51.436;6.972;2024-03-02T06:41:39;2.30;;;1.60;;
2011;SDS011;1009;51.436;6.972;2024-03-02T06:44:05;6.80;;;1.63;;
2011;SDS011;1009;51.436;6.972;2024-03-02T06:46:32;2.07;;;1.60;;
2011;SDS011;1009;51.436;6.972;2024-03-02T06:48:59;1.77;;;1.40;;
2011;SDS011;1009;51.436;6.972;2024-03-02T06:51:27;1.90;;;1.30;;
2011;SDS011;1009;51.436;6.972;2024-03-02T06:53:54;2.03;;;1.10;;
2011;SDS011;1009;51.436;6.972;2024-03-02T06:56:22;2.20;;;1.40;;
2011;SDS011;1009;51.436;6.972;2024-03-02T06:58:49;1.43;;;1.10;;
2011;SDS011;1009;51.436;6.972;2024-03-02T07:01:15;4.90;;;1.50;;
2011;SDS011;1009;51.436;6.972;2024-03-02T07:03:42;2.03;;;1.47;;
2011;SDS011;1009;51.436;6.972;2024-03-02T07:06:09;2.70;;;1.87;;
2011;SDS011;1009;51.436;6.972;2024-03-02T07:08:35;2.03;;;1.40;;
2011;SDS011;1009;51.436;6.972;2024-03-02T07:11:02;2.90;;;2.07;;
2011;SDS011;1009;51.436;6.972;2024-03-02T07:13:30;1.83;;;1.50;;
2011;SDS011;1009;51.436;6.972;2024-03-02T07:15:57;2.80;;;1.50;;
2011;SDS011;1009;51.436;6.972;2024-03-02T07:18:52;3.20;;;1.70;;
2011;SDS011;1009;51.436;6.972;2024-03-02T07:21:20;2.93;;;1.67;;
2011;SDS011;1009;51.436;6.972;2024-03-02T07:23:47;4.40;;;1.93;;
2011;SDS011;1009;51.436;6.972;2024-03-02T07:26:13;2.70;;;1.90;;
2011;SDS011;1009;51.436;6.972;2024-03-02T07:28:42;1.90;;;1.67;;
2011;SDS011;1009;51.436;6.972;2024-03-02T07:31:09;5.30;;;2.40;;
2011;SDS011;1009;51.436;6.972;2024-03-02T07:33:36;4.67;;;1.90;;
2011;SDS011;1009;51.436;6.972;2024-03-02T07:36:03;2.50;;;2.00;;
2011;SDS011;1009;51.436;6.972;2024-03-02T07:38:31;2.27;;;1.90;;
2011;SDS011;1009;51.436;6.972;2024-03-02T07:40:59;3.73;;;2.10;;
2011;SDS011;1009;51.436;6.972;2024-03-02T07:43:25;2.90;;;2.03;;
2011;SDS011;1009;51.436;6.972;2024-03-02T07:45:54;3.57;;;2.20;;
2011;SDS011;1009;51.436;6.972;2024-03-02T07:48:20;2.27;;;1.50;;
2011;SDS011;1009;51.436;6.972;2024-03-02T07:50:47;2.60;;;1.83;;
2011;SDS011;1009;51.436;6.972;2024-03-02T07:53:14;4.03;;;2.73;;
2011;SDS011;1009;51.436;6.972;2024-03-02T07:55:41;5.10;;;1.87;;
2011;SDS011;1009;51.436;6.972;2024-03-02T07:58:08;3.10;;;2.30;;
2011;SDS011;1009;51.436;6.972;2024-03-02T08:00:36;3.23;;;2.30;;
2011;SDS011;1009;51.436;6.972;2024-03-02T08:03:06;2.97;;;2.10;;
2011;SDS011;1009;51.436;6.972;2024-03-02T08:05:36;2.80;;;2.07;;
2011;SDS011;1009;51.436;6.972;2024-03-02T08:08:03;2.90;;;2.20;;
2011;SDS011;1009;51.436;6.972;2024-03-02T08:10:30;2.43;;;2.00;;
2011;SDS011;1009;51.436;6.972;2024-03-02T08:12:58;3.40;;;2.50;;
2011;SDS011;1009;51.436;6.972;2024-03-02T08:15:25;2.67;;;1.87;;
2011;SDS011;1009;51.436;6.972;2024-03-02T08:17:52;2.50;;;1.70;;
2011;SDS011;1009;51.436;6.972;2024-03-02T08:20:20;3.30;;;2.20;;
2011;SDS011;1009;51.436;6.972;2024-03-02T08:22:46;4.43;;;2.30;;
2011;SDS011;1009;51.436;6.972;2024-03-02T08:25:13;3.53;;;2.17;;
2011;SDS011;1009;51.436;6.972;2024-03-02T08:27:41;3.73;;;2.20;;
2011;SDS011;1009;51.436;6.972;2024-03-02T08:30:08;3.83;;;2.07;;
2011;SDS011;1009;51.436;6.972;2024-03-02T08:32:35;3.77;;;2.17;;
2011;SDS011;1009;51.436;6.972;2024-03-02T08:35:02;3.50;;;2.07;;
2011;SDS011;1009;51.436;6.972;2024-03-02T08:37:31;2.60;;;1.80;;
2011;SDS011;1009;51.436;6.972;2024-03-02T08:39:58;2.07;;;1.70;;
2011;SDS011;1009;51.436;6.972;2024-03-02T08:42:25;1.90;;;1.77;;
2011;SDS011;1009;51.436;6.972;2024-03-02T08:44:52;4.90;;;1.83;;
2011;SDS011;1009;51.436;6.972;2024-03-02T08:47:19;3.40;;;2.03;;
2011;SDS011;1009;51.436;6.972;2024-03-02T08:49:46;2.33;;;1.50;;
2011;SDS011;1009;51.436;6.972;2024-03-02T08:52:12;2.77;;;1.60;;
2011;SDS011;1009;51.436;6.972;2024-03-02T08:54:40;5.10;;;1.93;;
2011;SDS011;1009;51.436;6.972;2024-03-02T08:57:07;2.13;;;1.47;;
2011;SDS011;1009;51.436;6.972;2024-03-02T08:59:34;2.17;;;1.70;;
2011;SDS011;1009;51.436;6.972;2024-03-02T09:02:00;1.77;;;1.50;;
2011;SDS011;1009;51.436;6.972;2024-03-02T09:04:27;2.97;;;1.50;;
2011;SDS011;1009;51.436;6.972;2024-03-02T09:06:55;2.40;;;1.30;;
2011;SDS011;1009;51.436;6.972;2024-03-02T09:09:21;2.07;;;1.60;;
2011;SDS011;1009;51.436;6.972;2024-03-02T09:11:49;2.23;;;1.23;;
2011;SDS011;1009;51.436;6.972;2024-03-02T09:14:16;2.57;;;1.80;;
2011;SDS011;1009;51.436;6.972;2024-03-02T09:16:43;3.80;;;1.67;;
2011;SDS011;1009;51.436;6.972;2024-03-02T09:19:10;1.80;;;1.23;;
2011;SDS011;1009;51.436;6.972;2024-03-02T09:21:36;1.60;;;1.50;;
2011;SDS011;1009;51.436;6.972;2024-03-02T09:24:03;1.70;;;1.40;;
2011;SDS011;1009;51.436;6.972;2024-03-02T09:26:31;2.83;;;1.20;;
2011;SDS011;1009;51.436;6.972;2024-03-02T09:28:59;4.73;;;1.30;;
2011;SDS011;1009;51.436;6.972;2024-03-02T09:31:26;2.13;;;1.70;;
2011;SDS011;1009;51.436;6.972;2024-03-02T09:33:53;2.47;;;1.50;;
2011;SDS011;1009;51.436;6.972;2024-03-02T09:36:20;5.17;;;1.80;;
2011;SDS011;1009;51.436;6.972;2024-03-02T09:38:48;1.93;;;1.30;;
2011;SDS011;1009;51.436;6.972;2024-03-02T09:41:15;1.83;;;1.37;;
2011;SDS011;1009;51.436;6.972;2024-03-02T09:43:41;2.50;;;1.23;;
2011;SDS011;1009;51.436;6.972;2024-03-02T09:46:10;2.30;;;1.30;;
2011;SDS011;1009;51.436;6.972;2024-03-02T09:48:37;1.10;;;1.00;;
2011;SDS011;1009;51.436;6.972;2024-03-02T09:51:04;2.83;;;0.97;;
2011;SDS011;1009;51.436;6.972;2024-03-02T09:53:31;2.37;;;1.13;;
2011;SDS011;1009;51.436;6.972;2024-03-02T09:55:59;1.10;;;1.00;;
2011;SDS011;1009;51.436;6.972;2024-03-02T09:58:26;3.27;;;1.20;;
2011;SDS011;1009;51.436;6.972;2024-03-02T10:00:53;1.20;;;0.97;;
2011;SDS011;1009;51.436;6.972;2024-03-02T10:03:21;1.50;;;1.10;;
2011;SDS011;1009;51.436;6.972;2024-03-02T10:05:49;2.30;;;1.37;;
2011;SDS011;1009;51.436;6.972;2024-03-02T10:08:16;1.50;;;0.93;;
2011;SDS011;1009;51.436;6.972;2024-03-02T10:10:43;2.30;;;1.17;;
2011;SDS011;1009;51.436;6.972;2024-03-02T10:13:11;1.33;;;0.83;;
2011;SDS011;1009;51.436;6.972;2024-03-02T10:15:39;3.20;;;1.93;;
2011;SDS011;1009;51.436;6.972;2024-03-02T10:18:08;4.53;;;0.90;;
2011;SDS011;1009;51.436;6.972;2024-03-02T10:20:37;1.90;;;0.90;;
2011;SDS011;1009;51.436;6.972;2024-03-02T10:23:09;1.10;;;0.90;;
2011;SDS011;1009;51.436;6.972;2024-03-02T10:25:37;1.33;;;0.90;;
2011;SDS011;1009;51.436;6.972;2024-03-02T10:28:04;1.93;;;0.90;;
2011;SDS011;1009;51.436;6.972;2024-03-02T10:30:31;2.07;;;0.90;;
2011;SDS011;1009;51.436;6.972;2024-03-02T10:32:58;2.57;;;1.00;;
2011;SDS011;1009;51.436;6.972;2024-03-02T10:35:26;2.30;;;1.10;;
2011;SDS011;1009;51.436;6.972;2024-03-02T10:37:54;1.33;;;1.00;;
2011;SDS011;1009;51.436;6.972;2024-03-02T10:40:21;1.00;;;0.60;;
2011;SDS011;1009;51.436;6.972;2024-03-02T10:42:49;1.57;;;0.83;;
2011;SDS011;1009;51.436;6.972;2024-03-02T10:45:17;1.10;;;0.80;;
2011;SDS011;1009;51.436;6.972;2024-03-02T10:47:47;1.43;;;1.03;;
2011;SDS011;1009;51.436;6.972;2024-03-02T10:50:14;1.77;;;1.00;;
2011;SDS011;1009;51.436;6.972;2024-03-02T10:52:41;1.90;;;0.70;;
2011;SDS011;1009;51.436;6.972;2024-03-02T10:55:09;1.73;;;1.10;;
2011;SDS011;1009;51.436;6.972;2024-03-02T10:57:40;3.80;;;1.20;;
2011;SDS011;1009;51.436;6.972;2024-03-02T11:00:10;1.20;;;0.93;;
2011;SDS011;1009;51.436;6.972;2024-03-02T11:02:41;1.33;;;1.10;;
2011;SDS011;1009;51.436;6.972;2024-03-02T11:05:12;1.93;;;1.10;;
2011;SDS011;1009;51.436;6.972;2024-03-02T11:07:45;0.80;;;0.60;;
2011;SDS011;1009;51.436;6.972;2024-03-02T11:10:13;1.73;;;0.90;;
2011;SDS011;1009;51.436;6.972;2024-03-02T11:12:43;3.17;;;0.87;;
2011;SDS011;1009;51.436;6.972;2024-03-02T11:15:19;1.37;;;0.80;;
2011;SDS011;1009;51.436;6.972;2024-03-02T11:17:47;2.60;;;1.10;;
2011;SDS011;1009;51.436;6.972;2024-03-02T11:20:15;1.43;;;0.93;;
2011;SDS011;1009;51.436;6.972;2024-03-02T11:22:44;1.17;;;0.70;;
2011;SDS011;1009;51.436;6.972;2024-03-02T11:25:24;1.70;;;0.80;;
2011;SDS011;1009;51.436;6.972;2024-03-02T11:28:04;2.30;;;0.70;;
2011;SDS011;1009;51.436;6.972;2024-03-02T11:30:50;0.80;;;0.60;;
2011;SDS011;1009;51.436;6.972;2024-03-02T11:33:24;1.93;;;0.80;;
2011;SDS011;1009;51.436;6.972;2024-03-02T11:35:56;1.33;;;0.83;;
2011;SDS011;1009;51.436;6.972;2024-03-02T11:38:27;1.80;;;0.83;;
2011;SDS011;1009;51.436;6.972;2024-03-02T11:40:57;2.40;;;1.17;;
2011;SDS011;1009;51.436;6.972;2024-03-02T11:43:25;1.50;;;1.20;;
2011;SDS011;1009;51.436;6.972;2024-03-02T11:45:56;1.63;;;0.80;;
2011;SDS011;1009;51.436;6.972;2024-03-02T11:48:24;1.70;;;1.00;;
2011;SDS011;1009;51.436;6.972;2024-03-02T11:50:51;2.83;;;1.20;;
2011;SDS011;1009;51.436;6.972;2024-03-02T11:53:19;1.10;;;0.67;;
2011;SDS011;1009;51.436;6.972;2024-03-02T11:55:46;1.60;;;0.80;;
2011;SDS011;1009;51.436;6.972;2024-03-02T11:58:15;0.77;;;0.60;;
2011;SDS011;1009;51.436;6.972;2024-03-02T12:00:42;1.53;;;0.77;;
2011;SDS011;1009;51.436;6.972;2024-03-02T12:03:12;3.07;;;0.70;;
2011;SDS011;1009;51.436;6.972;2024-03-02T12:05:40;2.37;;;0.87;;
2011;SDS011;1009;51.436;6.972;2024-03-02T12:08:08;1.80;;;0.87;;
2011;SDS011;1009;51.436;6.972;2024-03-02T12:10:35;1.10;;;0.73;;
2011;SDS011;1009;51.436;6.972;2024-03-02T12:13:03;1.80;;;0.60;;
2011;SDS011;1009;51.436;6.972;2024-03-02T12:15:33;2.10;;;0.90;;
2011;SDS011;1009;51.436;6.972;2024-03-02T12:18:02;1.60;;;0.90;;
2011;SDS011;1009;51.436;6.972;2024-03-02T12:20:29;1.30;;;0.70;;
2011;SDS011;1009;51.436;6.972;2024-03-02T12:22:57;2.73;;;0.90;;
2011;SDS011;1009;51.436;6.972;2024-03-02T12:25:25;1.20;;;0.80;;
2011;SDS011;1009;51.436;6.972;2024-03-02T12:27:53;1.53;;;0.90;;
2011;SDS011;1009;51.436;6.972;2024-03-02T12:30:21;1.97;;;0.67;;
2011;SDS011;1009;51.436;6.972;2024-03-02T12:32:50;1.53;;;0.80;;
2011;SDS011;1009;51.436;6.972;2024-03-02T12:35:17;1.67;;;1.07;;
2011;SDS011;1009;51.436;6.972;2024-03-02T12:37:44;3.13;;;0.80;;
2011;SDS011;1009;51.436;6.972;2024-03-02T12:40:12;1.60;;;0.90;;
2011;SDS011;1009;51.436;6.972;2024-03-02T12:42:40;1.23;;;0.77;;
2011;SDS011;1009;51.436;6.972;2024-03-02T12:45:07;2.73;;;0.90;;
2011;SDS011;1009;51.436;6.972;2024-03-02T12:47:34;3.23;;;0.83;;
2011;SDS011;1009;51.436;6.972;2024-03-02T12:50:04;2.00;;;0.80;;
2011;SDS011;1009;51.436;6.972;2024-03-02T12:52:31;1.57;;;1.30;;
2011;SDS011;1009;51.436;6.972;2024-03-02T12:54:59;1.40;;;0.60;;
2011;SDS011;1009;51.436;6.972;2024-03-02T12:57:28;0.63;;;0.40;;
2011;SDS011;1009;51.436;6.972;2024-03-02T12:59:57;3.33;;;1.30;;
2011;SDS011;1009;51.436;6.972;2024-03-02T13:02:27;1.23;;;0.73;;
2011;SDS011;1009;51.436;6.972;2024-03-02T13:04:54;1.27;;;0.83;;
2011;SDS011;1009;51.436;6.972;2024-03-02T13:07:22;1.10;;;0.73;;
2011;SDS011;1009;51.436;6.972;2024-03-02T13:09:50;2.10;;;0.70;;
2011;SDS011;1009;51.436;6.972;2024-03-02T13:12:17;1.40;;;0.60;;
2011;SDS011;1009;51.436;6.972;2024-03-02T13:14:47;1.47;;;0.83;;
2011;SDS011;1009;51.436;6.972;2024-03-02T13:17:14;1.73;;;0.70;;
2011;SDS011;1009;51.436;6.972;2024-03-02T13:19:43;1.37;;;0.90;;
2011;SDS011;1009;51.436;6.972;2024-03-02T13:22:16;1.93;;;0.90;;
2011;SDS011;1009;51.436;6.972;2024-03-02T13:24:44;1.17;;;0.53;;
2011;SDS011;1009;51.436;6.972;2024-03-02T13:27:11;0.90;;;0.67;;
2011;SDS011;1009;51.436;6.972;2024-03-02T13:29:38;1.23;;;0.70;;
2011;SDS011;1009;51.436;6.972;2024-03-02T13:32:05;1.50;;;0.80;;
2011;SDS011;1009;51.436;6.972;2024-03-02T13:34:31;1.13;;;0.60;;
2011;SDS011;1009;51.436;6.972;2024-03-02T13:36:58;0.97;;;0.60;;
2011;SDS011;1009;51.436;6.972;2024-03-02T13:39:26;0.80;;;0.70;;
2011;SDS011;1009;51.436;6.972;2024-03-02T13:41:57;1.00;;;0.70;;
2011;SDS011;1009;51.436;6.972;2024-03-02T13:44:29;0.90;;;0.70;;
2011;SDS011;1009;51.436;6.972;2024-03-02T13:46:56;0.80;;;0.60;;
2011;SDS011;1009;51.436;6.972;2024-03-02T13:49:25;2.03;;;0.80;;
2011;SDS011;1009;51.436;6.972;2024-03-02T13:51:58;1.03;;;0.77;;
2011;SDS011;1009;51.436;6.972;2024-03-02T13:54:25;0.90;;;0.60;;
2011;SDS011;1009;51.436;6.972;2024-03-02T13:56:52;0.80;;;0.50;;
2011;SDS011;1009;51.436;6.972;2024-03-02T13:59:20;2.40;;;0.60;;
2011;SDS011;1009;51.436;6.972;2024-03-02T14:01:48;1.20;;;0.80;;
2011;SDS011;1009;51.436;6.972;2024-03-02T14:04:15;1.00;;;0.60;;
2011;SDS011;1009;51.436;6.972;2024-03-02T14:06:42;1.23;;;0.60;;
2011;SDS011;1009;51.436;6.972;2024-03-02T14:09:09;0.90;;;0.63;;
2011;SDS011;1009;51.436;6.972;2024-03-02T14:11:36;1.13;;;0.80;;
2011;SDS011;1009;51.436;6.972;2024-03-02T14:14:02;0.60;;;0.40;;
2011;SDS011;1009;51.436;6.972;2024-03-02T14:16:30;0.60;;;0.47;;
2011;SDS011;1009;51.436;6.972;2024-03-02T14:18:57;1.23;;;0.60;;
2011;SDS011;1009;51.436;6.972;2024-03-02T14:21:24;1.00;;;0.53;;
2011;SDS011;1009;51.436;6.972;2024-03-02T14:23:51;3.27;;;0.50;;
2011;SDS011;1009;51.436;6.972;2024-03-02T14:26:18;0.70;;;0.60;;
2011;SDS011;1009;51.436;6.972;2024-03-02T14:28:44;0.63;;;0.50;;
2011;SDS011;1009;51.436;6.972;2024-03-02T14:31:11;1.57;;;0.53;;
2011;SDS011;1009;51.436;6.972;2024-03-02T14:33:39;0.93;;;0.73;;
2011;SDS011;1009;51.436;6.972;2024-03-02T14:36:07;0.93;;;0.80;;
2011;SDS011;1009;51.436;6.972;2024-03-02T14:38:34;1.40;;;0.63;;
2011;SDS011;1009;51.436;6.972;2024-03-02T14:41:01;0.87;;;0.40;;
2011;SDS011;1009;51.436;6.972;2024-03-02T14:43:28;0.90;;;0.40;;
2011;SDS011;1009;51.436;6.972;2024-03-02T14:45:55;0.60;;;0.43;;
2011;SDS011;1009;51.436;6.972;2024-03-02T14:48:23;0.57;;;0.40;;
2011;SDS011;1009;51.436;6.972;2024-03-02T14:50:52;0.90;;;0.50;;
2011;SDS011;1009;51.436;6.972;2024-03-02T14:53:18;1.10;;;0.50;;
2011;SDS011;1009;51.436;6.972;2024-03-02T14:55:45;1.07;;;0.80;;
2011;SDS011;1009;51.436;6.972;2024-03-02T14:58:12;0.80;;;0.60;;
2011;SDS011;1009;51.436;6.972;2024-03-02T15:00:38;0.73;;;0.50;;
2011;SDS011;1009;51.436;6.972;2024-03-02T15:03:05;1.17;;;0.73;;
2011;SDS011;1009;51.436;6.972;2024-03-02T15:05:33;0.80;;;0.60;;
2011;SDS011;1009;51.436;6.972;2024-03-02T15:08:01;0.70;;;0.40;;
2011;SDS011;1009;51.436;6.972;2024-03-02T15:10:30;1.00;;;0.50;;
2011;SDS011;1009;51.436;6.972;2024-03-02T15:12:57;2.20;;;0.57;;
2011;SDS011;1009;51.436;6.972;2024-03-02T15:15:24;1.47;;;0.93;;
2011;SDS011;1009;51.436;6.972;2024-03-02T15:17:50;1.20;;;0.60;;